sensor_id;sensor_type;location;lat;lon;timestamp;P1;durP1;ratioP1;P2;durP2;ratioP2
12691;SDS011;6410;57.636;18.304;2022-07-06T00:01:57;4.40;;;3.95;;
12691;SDS011;6410;57.636;18.304;2022-07-06T00:04:25;4.13;;;3.83;;
12691;SDS011;6410;57.636;18.304;2022-07-06T00:06:54;3.75;;;3.50;;
12691;SDS011;6410;57.636;18.304;2022-07-06T00:09:25;4.50;;;4.10;;
12691;SDS011;6410;57.636;18.304;2022-07-06T00:11:53;4.70;;;3.70;;
12691;SDS011;6410;57.636;18.304;2022-07-06T00:14:22;4.25;;;3.92;;
12691;SDS011;6410;57.636;18.304;2022-07-06T00:16:51;4.45;;;3.83;;
12691;SDS011;6410;57.636;18.304;2022-07-06T00:19:19;4.07;;;3.70;;
12691;SDS011;6410;57.636;18.304;2022-07-06T00:21:48;4.07;;;3.67;;
12691;SDS011;6410;57.636;18.304;2022-07-06T00:24:17;5.43;;;3.40;;
12691;SDS011;6410;57.636;18.304;2022-07-06T00:26:47;3.70;;;3.50;;
12691;SDS011;6410;57.636;18.304;2022-07-06T00:29:15;4.13;;;3.72;;
12691;SDS011;6410;57.636;18.304;2022-07-06T00:31:44;3.97;;;3.17;;
12691;SDS011;6410;57.636;18.304;2022-07-06T00:34:13;3.85;;;3.30;;
12691;SDS011;6410;57.636;18.304;2022-07-06T00:36:41;5.22;;;3.60;;
12691;SDS011;6410;57.636;18.304;2022-07-06T00:39:10;4.70;;;3.70;;
12691;SDS011;6410;57.636;18.304;2022-07-06T00:41:39;4.43;;;3.60;;
12691;SDS011;6410;57.636;18.304;2022-07-06T00:44:09;3.70;;;3.40;;
12691;SDS011;6410;57.636;18.304;2022-07-06T00:46:37;3.10;;;2.90;;
12691;SDS011;6410;57.636;18.304;2022-07-06T00:49:06;4.55;;;3.40;;
12691;SDS011;6410;57.636;18.304;2022-07-06T00:51:55;5.65;;;3.20;;
12691;SDS011;6410;57.636;18.304;2022-07-06T00:54:24;3.00;;;2.80;;
12691;SDS011;6410;57.636;18.304;2022-07-06T00:56:53;3.05;;;2.75;;
12691;SDS011;6410;57.636;18.304;2022-07-06T00:59:24;2.95;;;2.70;;
12691;SDS011;6410;57.636;18.304;2022-07-06T01:01:53;3.55;;;2.90;;
12691;SDS011;6410;57.636;18.304;2022-07-06T01:04:22;4.20;;;3.20;;
12691;SDS011;6410;57.636;18.304;2022-07-06T01:06:50;2.80;;;2.60;;
12691;SDS011;6410;57.636;18.304;2022-07-06T01:09:19;3.00;;;2.80;;
12691;SDS011;6410;57.636;18.304;2022-07-06T01:11:48;2.72;;;2.58;;
12691;SDS011;6410;57.636;18.304;2022-07-06T01:14:16;6.15;;;2.80;;
12691;SDS011;6410;57.636;18.304;2022-07-06T01:16:46;3.13;;;2.80;;
12691;SDS011;6410;57.636;18.304;2022-07-06T01:19:15;2.55;;;2.35;;
12691;SDS011;6410;57.636;18.304;2022-07-06T01:21:45;3.50;;;2.75;;
12691;SDS011;6410;57.636;18.304;2022-07-06T01:24:13;3.75;;;2.63;;
12691;SDS011;6410;57.636;18.304;2022-07-06T01:26:42;2.72;;;2.53;;
12691;SDS011;6410;57.636;18.304;2022-07-06T01:29:11;2.30;;;2.20;;
12691;SDS011;6410;57.636;18.304;2022-07-06T01:31:45;3.33;;;2.70;;
12691;SDS011;6410;57.636;18.304;2022-07-06T01:34:15;2.95;;;2.60;;
12691;SDS011;6410;57.636;18.304;2022-07-06T01:36:45;2.65;;;2.47;;
12691;SDS011;6410;57.636;18.304;2022-07-06T01:39:14;3.40;;;3.10;;
12691;SDS011;6410;57.636;18.304;2022-07-06T01:41:42;3.63;;;2.90;;
12691;SDS011;6410;57.636;18.304;2022-07-06T01:44:11;3.55;;;3.15;;
12691;SDS011;6410;57.636;18.304;2022-07-06T01:46:39;3.20;;;2.90;;
12691;SDS011;6410;57.636;18.304;2022-07-06T01:49:08;3.67;;;3.30;;
12691;SDS011;6410;57.636;18.304;2022-07-06T01:51:37;3.63;;;3.40;;
12691;SDS011;6410;57.636;18.304;2022-07-06T01:54:06;2.92;;;2.72;;
12691;SDS011;6410;57.636;18.304;2022-07-06T01:56:35;3.30;;;3.05;;
12691;SDS011;6410;57.636;18.304;2022-07-06T01:59:04;3.35;;;3.13;;
12691;SDS011;6410;57.636;18.304;2022-07-06T02:01:32;3.25;;;2.60;;
12691;SDS011;6410;57.636;18.304;2022-07-06T02:04:01;3.67;;;3.22;;
12691;SDS011;6410;57.636;18.304;2022-07-06T02:06:29;4.07;;;3.40;;
12691;SDS011;6410;57.636;18.304;2022-07-06T02:08:58;3.90;;;3.60;;
12691;SDS011;6410;57.636;18.304;2022-07-06T02:11:28;3.83;;;3.55;;
12691;SDS011;6410;57.636;18.304;2022-07-06T02:13:56;3.67;;;3.38;;
12691;SDS011;6410;57.636;18.304;2022-07-06T02:16:25;3.47;;;3.25;;
12691;SDS011;6410;57.636;18.304;2022-07-06T02:18:53;3.38;;;3.03;;
12691;SDS011;6410;57.636;18.304;2022-07-06T02:21:22;3.80;;;3.47;;
12691;SDS011;6410;57.636;18.304;2022-07-06T02:23:50;3.38;;;3.10;;
12691;SDS011;6410;57.636;18.304;2022-07-06T02:26:19;3.35;;;3.15;;
12691;SDS011;6410;57.636;18.304;2022-07-06T02:28:49;3.22;;;3.03;;
12691;SDS011;6410;57.636;18.304;2022-07-06T02:31:17;3.20;;;3.08;;
12691;SDS011;6410;57.636;18.304;2022-07-06T02:33:46;4.18;;;3.60;;
12691;SDS011;6410;57.636;18.304;2022-07-06T02:36:14;3.05;;;2.85;;
12691;SDS011;6410;57.636;18.304;2022-07-06T02:38:43;3.45;;;3.15;;
12691;SDS011;6410;57.636;18.304;2022-07-06T02:41:11;3.47;;;3.17;;
12691;SDS011;6410;57.636;18.304;2022-07-06T02:43:40;3.53;;;3.13;;
12691;SDS011;6410;57.636;18.304;2022-07-06T02:46:10;5.63;;;2.97;;
12691;SDS011;6410;57.636;18.304;2022-07-06T02:48:38;3.20;;;2.90;;
12691;SDS011;6410;57.636;18.304;2022-07-06T02:51:07;4.07;;;3.10;;
12691;SDS011;6410;57.636;18.304;2022-07-06T02:53:36;3.05;;;2.88;;
12691;SDS011;6410;57.636;18.304;2022-07-06T02:56:04;3.13;;;2.80;;
12691;SDS011;6410;57.636;18.304;2022-07-06T02:58:33;3.58;;;3.28;;
12691;SDS011;6410;57.636;18.304;2022-07-06T03:01:01;3.53;;;3.22;;
12691;SDS011;6410;57.636;18.304;2022-07-06T03:03:32;3.60;;;3.40;;
12691;SDS011;6410;57.636;18.304;2022-07-06T03:06:00;3.08;;;2.97;;
12691;SDS011;6410;57.636;18.304;2022-07-06T03:08:29;3.35;;;3.15;;
12691;SDS011;6410;57.636;18.304;2022-07-06T03:10:57;3.80;;;3.50;;
12691;SDS011;6410;57.636;18.304;2022-07-06T03:13:26;3.67;;;3.42;;
12691;SDS011;6410;57.636;18.304;2022-07-06T03:15:55;3.72;;;3.45;;
12691;SDS011;6410;57.636;18.304;2022-07-06T03:18:23;4.82;;;3.30;;
12691;SDS011;6410;57.636;18.304;2022-07-06T03:20:54;4.20;;;3.40;;
12691;SDS011;6410;57.636;18.304;2022-07-06T03:23:23;3.40;;;3.20;;
12691;SDS011;6410;57.636;18.304;2022-07-06T03:25:51;3.53;;;3.10;;
12691;SDS011;6410;57.636;18.304;2022-07-06T03:28:20;3.33;;;3.13;;
12691;SDS011;6410;57.636;18.304;2022-07-06T03:30:49;3.08;;;2.97;;
12691;SDS011;6410;57.636;18.304;2022-07-06T03:33:17;3.88;;;3.58;;
12691;SDS011;6410;57.636;18.304;2022-07-06T03:35:46;3.05;;;2.85;;
12691;SDS011;6410;57.636;18.304;2022-07-06T03:38:16;2.95;;;2.75;;
12691;SDS011;6410;57.636;18.304;2022-07-06T03:40:44;3.20;;;3.00;;
12691;SDS011;6410;57.636;18.304;2022-07-06T03:43:13;3.70;;;3.50;;
12691;SDS011;6410;57.636;18.304;2022-07-06T03:45:41;3.42;;;3.22;;
12691;SDS011;6410;57.636;18.304;2022-07-06T03:48:10;3.88;;;3.63;;
12691;SDS011;6410;57.636;18.304;2022-07-06T03:50:38;4.75;;;3.83;;
12691;SDS011;6410;57.636;18.304;2022-07-06T03:53:07;4.22;;;3.92;;
12691;SDS011;6410;57.636;18.304;2022-07-06T03:55:37;4.03;;;3.38;;
12691;SDS011;6410;57.636;18.304;2022-07-06T03:58:05;3.83;;;3.63;;
12691;SDS011;6410;57.636;18.304;2022-07-06T04:00:34;3.60;;;3.15;;
12691;SDS011;6410;57.636;18.304;2022-07-06T04:03:03;4.13;;;3.78;;
12691;SDS011;6410;57.636;18.304;2022-07-06T04:05:31;3.70;;;3.42;;
12691;SDS011;6410;57.636;18.304;2022-07-06T04:08:00;3.60;;;3.40;;
12691;SDS011;6410;57.636;18.304;2022-07-06T04:10:28;4.95;;;3.80;;
12691;SDS011;6410;57.636;18.304;2022-07-06T04:12:58;4.03;;;3.72;;
12691;SDS011;6410;57.636;18.304;2022-07-06T04:15:27;3.92;;;3.72;;
12691;SDS011;6410;57.636;18.304;2022-07-06T04:17:55;3.50;;;3.30;;
12691;SDS011;6410;57.636;18.304;2022-07-06T04:20:24;4.10;;;3.80;;
12691;SDS011;6410;57.636;18.304;2022-07-06T04:22:53;3.75;;;3.45;;
12691;SDS011;6410;57.636;18.304;2022-07-06T04:25:21;4.90;;;3.90;;
12691;SDS011;6410;57.636;18.304;2022-07-06T04:27:50;4.05;;;3.75;;
12691;SDS011;6410;57.636;18.304;2022-07-06T04:30:20;3.60;;;3.30;;
12691;SDS011;6410;57.636;18.304;2022-07-06T04:32:48;4.00;;;3.72;;
12691;SDS011;6410;57.636;18.304;2022-07-06T04:35:17;3.75;;;3.53;;
12691;SDS011;6410;57.636;18.304;2022-07-06T04:37:45;3.60;;;3.30;;
12691;SDS011;6410;57.636;18.304;2022-07-06T04:40:14;4.28;;;3.97;;
12691;SDS011;6410;57.636;18.304;2022-07-06T04:42:44;4.55;;;4.18;;
12691;SDS011;6410;57.636;18.304;2022-07-06T04:45:13;3.83;;;3.53;;
12691;SDS011;6410;57.636;18.304;2022-07-06T04:47:42;3.80;;;3.60;;
12691;SDS011;6410;57.636;18.304;2022-07-06T04:50:11;3.80;;;3.50;;
12691;SDS011;6410;57.636;18.304;2022-07-06T04:52:40;3.80;;;3.60;;
12691;SDS011;6410;57.636;18.304;2022-07-06T04:55:08;3.70;;;3.40;;
12691;SDS011;6410;57.636;18.304;2022-07-06T04:57:37;3.67;;;3.38;;
12691;SDS011;6410;57.636;18.304;2022-07-06T05:00:06;4.50;;;3.60;;
12691;SDS011;6410;57.636;18.304;2022-07-06T05:02:35;4.63;;;4.40;;
12691;SDS011;6410;57.636;18.304;2022-07-06T05:05:05;4.18;;;3.80;;
12691;SDS011;6410;57.636;18.304;2022-07-06T05:07:35;4.10;;;3.80;;
12691;SDS011;6410;57.636;18.304;2022-07-06T05:10:07;3.92;;;3.72;;
12691;SDS011;6410;57.636;18.304;2022-07-06T05:12:36;4.22;;;3.85;;
12691;SDS011;6410;57.636;18.304;2022-07-06T05:15:05;3.50;;;3.20;;
12691;SDS011;6410;57.636;18.304;2022-07-06T05:17:33;3.92;;;3.38;;
12691;SDS011;6410;57.636;18.304;2022-07-06T05:20:02;3.90;;;3.28;;
12691;SDS011;6410;57.636;18.304;2022-07-06T05:22:32;4.13;;;3.45;;
12691;SDS011;6410;57.636;18.304;2022-07-06T05:25:09;3.45;;;3.35;;
12691;SDS011;6410;57.636;18.304;2022-07-06T05:27:38;3.53;;;3.33;;
12691;SDS011;6410;57.636;18.304;2022-07-06T05:30:07;3.35;;;3.15;;
12691;SDS011;6410;57.636;18.304;2022-07-06T05:32:35;3.70;;;3.40;;
12691;SDS011;6410;57.636;18.304;2022-07-06T05:35:04;3.83;;;3.63;;
12691;SDS011;6410;57.636;18.304;2022-07-06T05:37:54;3.50;;;3.30;;
12691;SDS011;6410;57.636;18.304;2022-07-06T05:40:23;6.57;;;3.95;;
12691;SDS011;6410;57.636;18.304;2022-07-06T05:42:51;4.00;;;3.72;;
12691;SDS011;6410;57.636;18.304;2022-07-06T05:45:20;3.60;;;3.40;;
12691;SDS011;6410;57.636;18.304;2022-07-06T05:47:49;3.78;;;3.47;;
12691;SDS011;6410;57.636;18.304;2022-07-06T05:50:35;3.67;;;3.35;;
12691;SDS011;6410;57.636;18.304;2022-07-06T05:53:05;4.40;;;3.35;;
12691;SDS011;6410;57.636;18.304;2022-07-06T05:55:42;3.40;;;3.15;;
12691;SDS011;6410;57.636;18.304;2022-07-06T05:58:11;3.47;;;3.10;;
12691;SDS011;6410;57.636;18.304;2022-07-06T06:00:39;3.78;;;3.58;;
12691;SDS011;6410;57.636;18.304;2022-07-06T06:03:08;4.47;;;3.35;;
12691;SDS011;6410;57.636;18.304;2022-07-06T06:05:37;3.63;;;3.35;;
12691;SDS011;6410;57.636;18.304;2022-07-06T06:08:07;3.85;;;3.45;;
12691;SDS011;6410;57.636;18.304;2022-07-06T06:10:35;3.63;;;3.40;;
12691;SDS011;6410;57.636;18.304;2022-07-06T06:13:04;3.95;;;3.70;;
12691;SDS011;6410;57.636;18.304;2022-07-06T06:15:32;3.70;;;3.50;;
12691;SDS011;6410;57.636;18.304;2022-07-06T06:18:01;3.63;;;3.35;;
12691;SDS011;6410;57.636;18.304;2022-07-06T06:20:31;3.53;;;3.33;;
12691;SDS011;6410;57.636;18.304;2022-07-06T06:23:00;3.30;;;3.10;;
12691;SDS011;6410;57.636;18.304;2022-07-06T06:25:32;3.35;;;3.05;;
12691;SDS011;6410;57.636;18.304;2022-07-06T06:28:01;3.50;;;3.20;;
12691;SDS011;6410;57.636;18.304;2022-07-06T06:30:30;3.33;;;3.22;;
12691;SDS011;6410;57.636;18.304;2022-07-06T06:33:05;3.85;;;3.65;;
12691;SDS011;6410;57.636;18.304;2022-07-06T06:35:34;3.17;;;2.85;;
12691;SDS011;6410;57.636;18.304;2022-07-06T06:38:03;2.95;;;2.83;;
12691;SDS011;6410;57.636;18.304;2022-07-06T06:40:33;3.00;;;2.70;;
12691;SDS011;6410;57.636;18.304;2022-07-06T06:43:01;3.67;;;3.47;;
12691;SDS011;6410;57.636;18.304;2022-07-06T06:45:30;3.72;;;3.42;;
12691;SDS011;6410;57.636;18.304;2022-07-06T06:47:58;3.80;;;3.42;;
12691;SDS011;6410;57.636;18.304;2022-07-06T06:50:27;3.35;;;3.00;;
12691;SDS011;6410;57.636;18.304;2022-07-06T06:52:56;5.72;;;3.78;;
12691;SDS011;6410;57.636;18.304;2022-07-06T06:55:24;5.00;;;3.67;;
12691;SDS011;6410;57.636;18.304;2022-07-06T06:57:54;3.92;;;3.63;;
12691;SDS011;6410;57.636;18.304;2022-07-06T07:00:22;6.63;;;3.90;;
12691;SDS011;6410;57.636;18.304;2022-07-06T07:02:51;4.43;;;3.65;;
12691;SDS011;6410;57.636;18.304;2022-07-06T07:05:20;3.67;;;3.40;;
12691;SDS011;6410;57.636;18.304;2022-07-06T07:07:48;3.47;;;3.28;;
12691;SDS011;6410;57.636;18.304;2022-07-06T07:10:17;3.60;;;3.30;;
12691;SDS011;6410;57.636;18.304;2022-07-06T07:12:45;3.58;;;3.33;;
12691;SDS011;6410;57.636;18.304;2022-07-06T07:15:15;3.53;;;3.22;;
12691;SDS011;6410;57.636;18.304;2022-07-06T07:17:44;3.47;;;3.17;;
12691;SDS011;6410;57.636;18.304;2022-07-06T07:20:13;3.75;;;3.53;;
12691;SDS011;6410;57.636;18.304;2022-07-06T07:22:41;4.53;;;4.22;;
12691;SDS011;6410;57.636;18.304;2022-07-06T07:25:10;3.65;;;3.35;;
12691;SDS011;6410;57.636;18.304;2022-07-06T07:27:38;3.90;;;3.70;;
12691;SDS011;6410;57.636;18.304;2022-07-06T07:30:07;4.72;;;4.32;;
12691;SDS011;6410;57.636;18.304;2022-07-06T07:32:37;4.88;;;3.67;;
12691;SDS011;6410;57.636;18.304;2022-07-06T07:35:07;3.80;;;3.50;;
12691;SDS011;6410;57.636;18.304;2022-07-06T07:37:36;4.25;;;3.20;;
12691;SDS011;6410;57.636;18.304;2022-07-06T07:40:05;3.53;;;3.33;;
12691;SDS011;6410;57.636;18.304;2022-07-06T07:42:33;3.97;;;3.50;;
12691;SDS011;6410;57.636;18.304;2022-07-06T07:45:04;3.97;;;3.60;;
12691;SDS011;6410;57.636;18.304;2022-07-06T07:47:32;3.58;;;3.28;;
12691;SDS011;6410;57.636;18.304;2022-07-06T07:50:03;4.53;;;3.55;;
12691;SDS011;6410;57.636;18.304;2022-07-06T07:52:31;3.50;;;3.20;;
12691;SDS011;6410;57.636;18.304;2022-07-06T07:55:00;3.45;;;3.28;;
12691;SDS011;6410;57.636;18.304;2022-07-06T07:57:48;3.70;;;3.50;;
12691;SDS011;6410;57.636;18.304;2022-07-06T08:00:17;4.00;;;3.00;;
12691;SDS011;6410;57.636;18.304;2022-07-06T08:02:53;3.83;;;3.40;;
12691;SDS011;6410;57.636;18.304;2022-07-06T08:05:23;4.10;;;3.10;;
12691;SDS011;6410;57.636;18.304;2022-07-06T08:07:51;3.30;;;3.10;;
12691;SDS011;6410;57.636;18.304;2022-07-06T08:10:20;5.43;;;3.50;;
12691;SDS011;6410;57.636;18.304;2022-07-06T08:12:48;4.45;;;4.15;;
12691;SDS011;6410;57.636;18.304;2022-07-06T08:15:17;4.60;;;3.55;;
12691;SDS011;6410;57.636;18.304;2022-07-06T08:17:45;3.30;;;3.10;;
12691;SDS011;6410;57.636;18.304;2022-07-06T08:20:14;5.40;;;3.67;;
12691;SDS011;6410;57.636;18.304;2022-07-06T08:22:44;3.13;;;2.92;;
12691;SDS011;6410;57.636;18.304;2022-07-06T08:25:13;4.53;;;3.40;;
12691;SDS011;6410;57.636;18.304;2022-07-06T08:27:41;4.55;;;3.20;;
12691;SDS011;6410;57.636;18.304;2022-07-06T08:30:10;3.65;;;3.33;;
12691;SDS011;6410;57.636;18.304;2022-07-06T08:32:39;3.95;;;3.63;;
12691;SDS011;6410;57.636;18.304;2022-07-06T08:35:28;4.10;;;3.70;;
12691;SDS011;6410;57.636;18.304;2022-07-06T08:37:58;4.20;;;3.88;;
12691;SDS011;6410;57.636;18.304;2022-07-06T08:40:28;3.60;;;3.40;;
12691;SDS011;6410;57.636;18.304;2022-07-06T08:42:59;3.30;;;3.10;;
12691;SDS011;6410;57.636;18.304;2022-07-06T08:45:28;3.40;;;3.10;;
12691;SDS011;6410;57.636;18.304;2022-07-06T08:47:57;3.20;;;3.10;;
12691;SDS011;6410;57.636;18.304;2022-07-06T08:50:26;3.92;;;3.55;;
12691;SDS011;6410;57.636;18.304;2022-07-06T08:52:55;3.63;;;3.33;;
12691;SDS011;6410;57.636;18.304;2022-07-06T08:55:26;3.85;;;3.55;;
12691;SDS011;6410;57.636;18.304;2022-07-06T08:57:55;3.30;;;3.10;;
12691;SDS011;6410;57.636;18.304;2022-07-06T09:00:24;3.92;;;3.63;;
12691;SDS011;6410;57.636;18.304;2022-07-06T09:02:53;3.15;;;2.95;;
12691;SDS011;6410;57.636;18.304;2022-07-06T09:05:23;3.47;;;3.15;;
12691;SDS011;6410;57.636;18.304;2022-07-06T09:07:52;3.03;;;2.90;;
12691;SDS011;6410;57.636;18.304;2022-07-06T09:10:27;3.70;;;3.30;;
12691;SDS011;6410;57.636;18.304;2022-07-06T09:13:01;3.60;;;3.13;;
12691;SDS011;6410;57.636;18.304;2022-07-06T09:15:30;6.75;;;3.47;;
12691;SDS011;6410;57.636;18.304;2022-07-06T09:17:59;6.15;;;3.28;;
12691;SDS011;6410;57.636;18.304;2022-07-06T09:20:28;3.40;;;3.20;;
12691;SDS011;6410;57.636;18.304;2022-07-06T09:22:57;3.50;;;3.30;;
12691;SDS011;6410;57.636;18.304;2022-07-06T09:25:28;3.90;;;3.22;;
12691;SDS011;6410;57.636;18.304;2022-07-06T09:27:58;3.92;;;3.17;;
12691;SDS011;6410;57.636;18.304;2022-07-06T09:30:27;3.30;;;3.03;;
12691;SDS011;6410;57.636;18.304;2022-07-06T09:32:56;5.40;;;4.07;;
12691;SDS011;6410;57.636;18.304;2022-07-06T09:35:26;5.80;;;3.50;;
12691;SDS011;6410;57.636;18.304;2022-07-06T09:38:02;3.83;;;3.63;;
12691;SDS011;6410;57.636;18.304;2022-07-06T09:40:33;3.97;;;3.67;;
12691;SDS011;6410;57.636;18.304;2022-07-06T09:43:09;3.83;;;3.25;;
12691;SDS011;6410;57.636;18.304;2022-07-06T09:45:38;3.85;;;3.55;;
12691;SDS011;6410;57.636;18.304;2022-07-06T09:48:08;3.95;;;3.63;;
12691;SDS011;6410;57.636;18.304;2022-07-06T09:50:40;3.70;;;3.40;;
12691;SDS011;6410;57.636;18.304;2022-07-06T09:53:10;3.65;;;3.40;;
12691;SDS011;6410;57.636;18.304;2022-07-06T09:55:40;3.55;;;3.25;;
12691;SDS011;6410;57.636;18.304;2022-07-06T09:58:11;7.60;;;5.25;;
12691;SDS011;6410;57.636;18.304;2022-07-06T10:00:39;4.30;;;3.92;;
12691;SDS011;6410;57.636;18.304;2022-07-06T10:03:08;3.80;;;3.50;;
12691;SDS011;6410;57.636;18.304;2022-07-06T10:05:37;5.03;;;3.70;;
12691;SDS011;6410;57.636;18.304;2022-07-06T10:08:06;3.90;;;3.60;;
12691;SDS011;6410;57.636;18.304;2022-07-06T10:10:36;5.57;;;3.60;;
12691;SDS011;6410;57.636;18.304;2022-07-06T10:13:07;4.20;;;3.80;;
12691;SDS011;6410;57.636;18.304;2022-07-06T10:15:36;5.32;;;3.90;;
12691;SDS011;6410;57.636;18.304;2022-07-06T10:18:05;3.85;;;3.55;;
12691;SDS011;6410;57.636;18.304;2022-07-06T10:20:35;4.50;;;4.10;;
12691;SDS011;6410;57.636;18.304;2022-07-06T10:23:05;4.10;;;3.80;;
12691;SDS011;6410;57.636;18.304;2022-07-06T10:25:34;4.53;;;4.00;;
12691;SDS011;6410;57.636;18.304;2022-07-06T10:28:03;4.30;;;3.95;;
12691;SDS011;6410;57.636;18.304;2022-07-06T10:30:41;4.22;;;4.03;;
12691;SDS011;6410;57.636;18.304;2022-07-06T10:33:12;4.80;;;4.07;;
12691;SDS011;6410;57.636;18.304;2022-07-06T10:35:42;4.40;;;4.18;;
12691;SDS011;6410;57.636;18.304;2022-07-06T10:38:11;4.38;;;3.97;;
12691;SDS011;6410;57.636;18.304;2022-07-06T10:40:40;3.88;;;3.65;;
12691;SDS011;6410;57.636;18.304;2022-07-06T10:43:36;4.47;;;4.18;;
12691;SDS011;6410;57.636;18.304;2022-07-06T10:46:07;4.05;;;3.80;;
12691;SDS011;6410;57.636;18.304;2022-07-06T10:48:37;4.30;;;4.00;;
12691;SDS011;6410;57.636;18.304;2022-07-06T10:51:06;4.22;;;3.85;;
12691;SDS011;6410;57.636;18.304;2022-07-06T10:53:35;4.28;;;3.97;;
12691;SDS011;6410;57.636;18.304;2022-07-06T10:56:05;4.30;;;3.80;;
12691;SDS011;6410;57.636;18.304;2022-07-06T11:01:19;4.13;;;3.92;;
12691;SDS011;6410;57.636;18.304;2022-07-06T11:03:48;4.55;;;4.25;;
12691;SDS011;6410;57.636;18.304;2022-07-06T11:06:18;4.13;;;3.92;;
12691;SDS011;6410;57.636;18.304;2022-07-06T11:08:48;4.40;;;4.20;;
12691;SDS011;6410;57.636;18.304;2022-07-06T11:11:17;4.20;;;4.00;;
12691;SDS011;6410;57.636;18.304;2022-07-06T11:13:51;4.60;;;4.20;;
12691;SDS011;6410;57.636;18.304;2022-07-06T11:16:21;4.80;;;4.07;;
12691;SDS011;6410;57.636;18.304;2022-07-06T11:19:03;4.10;;;3.90;;
12691;SDS011;6410;57.636;18.304;2022-07-06T11:21:32;4.28;;;3.92;;
12691;SDS011;6410;57.636;18.304;2022-07-06T11:24:02;5.53;;;5.05;;
12691;SDS011;6410;57.636;18.304;2022-07-06T11:26:31;6.10;;;5.03;;
12691;SDS011;6410;57.636;18.304;2022-07-06T11:29:06;5.03;;;4.72;;
12691;SDS011;6410;57.636;18.304;2022-07-06T11:31:37;4.45;;;4.15;;
12691;SDS011;6410;57.636;18.304;2022-07-06T11:34:07;4.95;;;4.75;;
12691;SDS011;6410;57.636;18.304;2022-07-06T11:36:36;4.80;;;4.60;;
12691;SDS011;6410;57.636;18.304;2022-07-06T11:39:11;4.90;;;4.70;;
12691;SDS011;6410;57.636;18.304;2022-07-06T11:41:40;5.72;;;5.32;;
12691;SDS011;6410;57.636;18.304;2022-07-06T11:44:16;5.35;;;4.80;;
12691;SDS011;6410;57.636;18.304;2022-07-06T11:46:46;4.90;;;4.70;;
12691;SDS011;6410;57.636;18.304;2022-07-06T11:49:15;5.43;;;5.00;;
12691;SDS011;6410;57.636;18.304;2022-07-06T11:51:44;5.57;;;5.13;;
12691;SDS011;6410;57.636;18.304;2022-07-06T11:54:13;5.18;;;4.88;;
12691;SDS011;6410;57.636;18.304;2022-07-06T11:56:46;5.50;;;4.97;;
12691;SDS011;6410;57.636;18.304;2022-07-06T11:59:15;5.43;;;5.13;;
12691;SDS011;6410;57.636;18.304;2022-07-06T12:01:45;5.15;;;4.85;;
12691;SDS011;6410;57.636;18.304;2022-07-06T12:04:14;5.20;;;4.90;;
12691;SDS011;6410;57.636;18.304;2022-07-06T12:06:43;5.75;;;4.97;;
12691;SDS011;6410;57.636;18.304;2022-07-06T12:09:12;5.63;;;5.03;;
12691;SDS011;6410;57.636;18.304;2022-07-06T12:11:41;5.05;;;4.85;;
12691;SDS011;6410;57.636;18.304;2022-07-06T12:14:13;5.80;;;5.38;;
12691;SDS011;6410;57.636;18.304;2022-07-06T12:16:42;5.35;;;5.03;;
12691;SDS011;6410;57.636;18.304;2022-07-06T12:19:12;5.78;;;5.47;;
12691;SDS011;6410;57.636;18.304;2022-07-06T12:21:44;5.60;;;5.40;;
12691;SDS011;6410;57.636;18.304;2022-07-06T12:24:17;5.53;;;5.32;;
12691;SDS011;6410;57.636;18.304;2022-07-06T12:26:46;6.80;;;6.25;;
12691;SDS011;6410;57.636;18.304;2022-07-06T12:29:14;5.93;;;5.55;;
12691;SDS011;6410;57.636;18.304;2022-07-06T12:31:47;6.43;;;6.03;;
12691;SDS011;6410;57.636;18.304;2022-07-06T12:34:18;6.55;;;6.07;;
12691;SDS011;6410;57.636;18.304;2022-07-06T12:36:47;6.30;;;6.00;;
12691;SDS011;6410;57.636;18.304;2022-07-06T12:39:16;6.50;;;6.10;;
12691;SDS011;6410;57.636;18.304;2022-07-06T12:41:46;6.38;;;5.97;;
12691;SDS011;6410;57.636;18.304;2022-07-06T12:44:16;8.00;;;7.40;;
12691;SDS011;6410;57.636;18.304;2022-07-06T12:46:45;6.55;;;6.10;;
12691;SDS011;6410;57.636;18.304;2022-07-06T12:49:15;6.63;;;6.10;;
12691;SDS011;6410;57.636;18.304;2022-07-06T12:51:55;7.40;;;6.75;;
12691;SDS011;6410;57.636;18.304;2022-07-06T12:54:25;7.45;;;6.95;;
12691;SDS011;6410;57.636;18.304;2022-07-06T12:57:01;6.72;;;6.43;;
12691;SDS011;6410;57.636;18.304;2022-07-06T12:59:30;6.80;;;6.20;;
12691;SDS011;6410;57.636;18.304;2022-07-06T13:01:58;6.80;;;6.40;;
12691;SDS011;6410;57.636;18.304;2022-07-06T13:04:28;7.20;;;6.65;;
12691;SDS011;6410;57.636;18.304;2022-07-06T13:06:59;6.97;;;6.38;;
12691;SDS011;6410;57.636;18.304;2022-07-06T13:09:33;6.63;;;6.32;;
12691;SDS011;6410;57.636;18.304;2022-07-06T13:12:02;7.32;;;6.30;;
12691;SDS011;6410;57.636;18.304;2022-07-06T13:14:30;6.97;;;6.57;;
12691;SDS011;6410;57.636;18.304;2022-07-06T13:16:59;6.97;;;6.38;;
12691;SDS011;6410;57.636;18.304;2022-07-06T13:19:28;6.55;;;6.25;;
12691;SDS011;6410;57.636;18.304;2022-07-06T13:21:56;6.60;;;6.30;;
12691;SDS011;6410;57.636;18.304;2022-07-06T13:24:26;6.78;;;6.38;;
12691;SDS011;6410;57.636;18.304;2022-07-06T13:26:58;6.70;;;6.30;;
12691;SDS011;6410;57.636;18.304;2022-07-06T13:29:27;6.80;;;6.40;;
12691;SDS011;6410;57.636;18.304;2022-07-06T13:31:55;6.38;;;6.18;;
12691;SDS011;6410;57.636;18.304;2022-07-06T13:34:24;6.75;;;6.40;;
12691;SDS011;6410;57.636;18.304;2022-07-06T13:36:53;6.80;;;6.40;;
12691;SDS011;6410;57.636;18.304;2022-07-06T13:39:21;6.93;;;6.50;;
12691;SDS011;6410;57.636;18.304;2022-07-06T13:41:51;6.68;;;6.38;;
12691;SDS011;6410;57.636;18.304;2022-07-06T13:44:20;6.45;;;6.15;;
12691;SDS011;6410;57.636;18.304;2022-07-06T13:46:49;6.30;;;6.00;;
12691;SDS011;6410;57.636;18.304;2022-07-06T13:49:17;6.72;;;6.22;;
12691;SDS011;6410;57.636;18.304;2022-07-06T13:51:46;6.60;;;6.15;;
12691;SDS011;6410;57.636;18.304;2022-07-06T13:54:15;6.20;;;5.90;;
12691;SDS011;6410;57.636;18.304;2022-07-06T13:56:43;6.10;;;5.80;;
12691;SDS011;6410;57.636;18.304;2022-07-06T13:59:13;5.80;;;5.60;;
12691;SDS011;6410;57.636;18.304;2022-07-06T14:01:42;5.72;;;5.47;;
12691;SDS011;6410;57.636;18.304;2022-07-06T14:04:11;5.50;;;5.28;;
12691;SDS011;6410;57.636;18.304;2022-07-06T14:06:39;5.78;;;5.38;;
12691;SDS011;6410;57.636;18.304;2022-07-06T14:09:08;6.78;;;6.18;;
12691;SDS011;6410;57.636;18.304;2022-07-06T14:11:36;6.00;;;5.80;;
12691;SDS011;6410;57.636;18.304;2022-07-06T14:14:05;6.20;;;5.80;;
12691;SDS011;6410;57.636;18.304;2022-07-06T14:16:35;5.57;;;5.38;;
12691;SDS011;6410;57.636;18.304;2022-07-06T14:19:06;5.90;;;5.60;;
12691;SDS011;6410;57.636;18.304;2022-07-06T14:21:34;5.88;;;5.38;;
12691;SDS011;6410;57.636;18.304;2022-07-06T14:24:03;5.55;;;5.35;;
12691;SDS011;6410;57.636;18.304;2022-07-06T14:26:32;6.13;;;5.82;;
12691;SDS011;6410;57.636;18.304;2022-07-06T14:29:00;5.70;;;5.40;;
12691;SDS011;6410;57.636;18.304;2022-07-06T14:31:29;5.82;;;5.53;;
12691;SDS011;6410;57.636;18.304;2022-07-06T14:33:59;6.03;;;5.72;;
12691;SDS011;6410;57.636;18.304;2022-07-06T14:36:28;6.05;;;5.65;;
12691;SDS011;6410;57.636;18.304;2022-07-06T14:38:56;6.97;;;5.35;;
12691;SDS011;6410;57.636;18.304;2022-07-06T14:41:25;5.70;;;5.20;;
12691;SDS011;6410;57.636;18.304;2022-07-06T14:43:53;5.97;;;5.55;;
12691;SDS011;6410;57.636;18.304;2022-07-06T14:46:22;5.93;;;5.72;;
12691;SDS011;6410;57.636;18.304;2022-07-06T14:48:50;6.03;;;5.70;;
12691;SDS011;6410;57.636;18.304;2022-07-06T14:51:20;6.03;;;5.72;;
12691;SDS011;6410;57.636;18.304;2022-07-06T14:53:49;5.63;;;5.40;;
12691;SDS011;6410;57.636;18.304;2022-07-06T14:56:17;6.68;;;6.22;;
12691;SDS011;6410;57.636;18.304;2022-07-06T14:58:46;7.03;;;6.40;;
12691;SDS011;6410;57.636;18.304;2022-07-06T15:01:34;6.60;;;6.30;;
12691;SDS011;6410;57.636;18.304;2022-07-06T15:04:03;6.97;;;6.40;;
12691;SDS011;6410;57.636;18.304;2022-07-06T15:06:33;6.50;;;6.20;;